sensor_id;sensor_type;location;lat;lon;timestamp;P1;durP1;ratioP1;P2;durP2;ratioP2
12593;SDS011;6362;50.208;9.182;2023-02-01T00:01:53;5.55;;;3.42;;
12593;SDS011;6362;50.208;9.182;2023-02-01T00:04:18;4.88;;;3.63;;
12593;SDS011;6362;50.208;9.182;2023-02-01T00:06:44;5.00;;;3.10;;
12593;SDS011;6362;50.208;9.182;2023-02-01T00:09:09;5.93;;;3.33;;
12593;SDS011;6362;50.208;9.182;2023-02-01T00:11:35;8.13;;;3.92;;
12593;SDS011;6362;50.208;9.182;2023-02-01T00:14:00;5.18;;;4.28;;
12593;SDS011;6362;50.208;9.182;2023-02-01T00:16:27;5.82;;;3.10;;
12593;SDS011;6362;50.208;9.182;2023-02-01T00:19:09;6.43;;;3.53;;
12593;SDS011;6362;50.208;9.182;2023-02-01T00:21:36;5.20;;;3.33;;
12593;SDS011;6362;50.208;9.182;2023-02-01T00:24:02;5.93;;;3.38;;
12593;SDS011;6362;50.208;9.182;2023-02-01T00:28:56;5.93;;;3.53;;
12593;SDS011;6362;50.208;9.182;2023-02-01T00:31:22;5.43;;;3.85;;
12593;SDS011;6362;50.208;9.182;2023-02-01T00:33:47;4.90;;;3.70;;
12593;SDS011;6362;50.208;9.182;2023-02-01T00:36:13;4.93;;;3.47;;
12593;SDS011;6362;50.208;9.182;2023-02-01T00:38:39;4.70;;;3.45;;
12593;SDS011;6362;50.208;9.182;2023-02-01T00:41:11;4.32;;;3.35;;
12593;SDS011;6362;50.208;9.182;2023-02-01T00:43:37;4.78;;;3.42;;
12593;SDS011;6362;50.208;9.182;2023-02-01T00:46:03;6.65;;;3.63;;
12593;SDS011;6362;50.208;9.182;2023-02-01T00:48:28;6.05;;;3.88;;
12593;SDS011;6362;50.208;9.182;2023-02-01T00:50:54;5.32;;;4.05;;
12593;SDS011;6362;50.208;9.182;2023-02-01T00:53:19;4.90;;;3.60;;
12593;SDS011;6362;50.208;9.182;2023-02-01T00:55:45;5.22;;;3.92;;
12593;SDS011;6362;50.208;9.182;2023-02-01T00:58:11;3.88;;;3.47;;
12593;SDS011;6362;50.208;9.182;2023-02-01T01:00:37;6.20;;;4.10;;
12593;SDS011;6362;50.208;9.182;2023-02-01T01:03:03;6.63;;;3.63;;
12593;SDS011;6362;50.208;9.182;2023-02-01T01:05:42;5.20;;;3.78;;
12593;SDS011;6362;50.208;9.182;2023-02-01T01:08:11;5.28;;;3.75;;
12593;SDS011;6362;50.208;9.182;2023-02-01T01:10:36;6.00;;;3.60;;
12593;SDS011;6362;50.208;9.182;2023-02-01T01:13:02;5.32;;;3.65;;
12593;SDS011;6362;50.208;9.182;2023-02-01T01:15:27;6.03;;;4.30;;
12593;SDS011;6362;50.208;9.182;2023-02-01T01:17:53;8.13;;;5.25;;
12593;SDS011;6362;50.208;9.182;2023-02-01T01:20:18;7.05;;;4.30;;
12593;SDS011;6362;50.208;9.182;2023-02-01T01:22:46;6.25;;;4.25;;
12593;SDS011;6362;50.208;9.182;2023-02-01T01:25:12;7.55;;;4.07;;
12593;SDS011;6362;50.208;9.182;2023-02-01T01:27:38;6.45;;;4.03;;
12593;SDS011;6362;50.208;9.182;2023-02-01T01:30:04;6.88;;;4.53;;
12593;SDS011;6362;50.208;9.182;2023-02-01T01:32:29;5.32;;;3.78;;
12593;SDS011;6362;50.208;9.182;2023-02-01T01:34:55;6.20;;;4.55;;
12593;SDS011;6362;50.208;9.182;2023-02-01T01:37:20;5.65;;;3.97;;
12593;SDS011;6362;50.208;9.182;2023-02-01T01:39:46;4.95;;;3.83;;
12593;SDS011;6362;50.208;9.182;2023-02-01T01:42:11;7.13;;;3.70;;
12593;SDS011;6362;50.208;9.182;2023-02-01T01:47:43;4.63;;;3.67;;
12593;SDS011;6362;50.208;9.182;2023-02-01T01:50:14;7.18;;;4.07;;
12593;SDS011;6362;50.208;9.182;2023-02-01T01:52:42;10.68;;;4.10;;
12593;SDS011;6362;50.208;9.182;2023-02-01T01:55:10;5.30;;;3.72;;
12593;SDS011;6362;50.208;9.182;2023-02-01T01:57:38;7.18;;;3.83;;
12593;SDS011;6362;50.208;9.182;2023-02-01T02:00:08;5.80;;;3.58;;
12593;SDS011;6362;50.208;9.182;2023-02-01T02:02:38;6.85;;;3.97;;
12593;SDS011;6362;50.208;9.182;2023-02-01T02:05:05;7.43;;;4.38;;
12593;SDS011;6362;50.208;9.182;2023-02-01T02:07:32;8.07;;;4.95;;
12593;SDS011;6362;50.208;9.182;2023-02-01T02:10:03;7.35;;;4.97;;
12593;SDS011;6362;50.208;9.182;2023-02-01T02:12:31;7.28;;;4.57;;
12593;SDS011;6362;50.208;9.182;2023-02-01T02:14:57;6.10;;;4.57;;
12593;SDS011;6362;50.208;9.182;2023-02-01T02:50:36;7.22;;;5.00;;
12593;SDS011;6362;50.208;9.182;2023-02-01T02:53:37;9.80;;;5.55;;
12593;SDS011;6362;50.208;9.182;2023-02-01T02:56:28;9.45;;;5.93;;
12593;SDS011;6362;50.208;9.182;2023-02-01T02:59:14;10.77;;;6.93;;
12593;SDS011;6362;50.208;9.182;2023-02-01T03:02:01;9.68;;;6.07;;
12593;SDS011;6362;50.208;9.182;2023-02-01T03:04:45;9.93;;;6.35;;
12593;SDS011;6362;50.208;9.182;2023-02-01T03:07:55;9.63;;;5.65;;
12593;SDS011;6362;50.208;9.182;2023-02-01T03:10:10;8.32;;;5.53;;
12593;SDS011;6362;50.208;9.182;2023-02-01T03:12:43;7.32;;;5.43;;
12593;SDS011;6362;50.208;9.182;2023-02-01T03:15:23;10.32;;;5.72;;
12593;SDS011;6362;50.208;9.182;2023-02-01T03:17:56;11.15;;;5.90;;
12593;SDS011;6362;50.208;9.182;2023-02-01T03:20:24;8.25;;;5.95;;
12593;SDS011;6362;50.208;9.182;2023-02-01T03:22:51;10.32;;;5.90;;
12593;SDS011;6362;50.208;9.182;2023-02-01T03:25:22;10.63;;;5.32;;
12593;SDS011;6362;50.208;9.182;2023-02-01T03:28:03;9.50;;;5.53;;
12593;SDS011;6362;50.208;9.182;2023-02-01T03:30:37;9.00;;;5.63;;
12593;SDS011;6362;50.208;9.182;2023-02-01T03:33:08;8.38;;;5.43;;
12593;SDS011;6362;50.208;9.182;2023-02-01T03:43:55;6.47;;;4.80;;
12593;SDS011;6362;50.208;9.182;2023-02-01T03:46:33;10.10;;;5.70;;
12593;SDS011;6362;50.208;9.182;2023-02-01T03:49:05;10.40;;;5.53;;
12593;SDS011;6362;50.208;9.182;2023-02-01T03:51:35;8.85;;;5.55;;
12593;SDS011;6362;50.208;9.182;2023-02-01T03:54:03;8.25;;;5.28;;
12593;SDS011;6362;50.208;9.182;2023-02-01T03:56:31;11.63;;;5.70;;
12593;SDS011;6362;50.208;9.182;2023-02-01T03:59:02;7.40;;;5.25;;
12593;SDS011;6362;50.208;9.182;2023-02-01T04:01:28;8.48;;;5.55;;
12593;SDS011;6362;50.208;9.182;2023-02-01T04:03:55;7.55;;;5.03;;
12593;SDS011;6362;50.208;9.182;2023-02-01T04:06:23;8.93;;;5.18;;
12593;SDS011;6362;50.208;9.182;2023-02-01T04:08:49;7.28;;;5.05;;
12593;SDS011;6362;50.208;9.182;2023-02-01T04:11:15;11.55;;;4.72;;
12593;SDS011;6362;50.208;9.182;2023-02-01T04:13:41;6.97;;;4.75;;
12593;SDS011;6362;50.208;9.182;2023-02-01T04:16:07;7.28;;;4.97;;
12593;SDS011;6362;50.208;9.182;2023-02-01T04:18:32;7.68;;;5.60;;
12593;SDS011;6362;50.208;9.182;2023-02-01T04:20:58;8.40;;;5.15;;
12593;SDS011;6362;50.208;9.182;2023-02-01T04:23:23;8.55;;;4.70;;
12593;SDS011;6362;50.208;9.182;2023-02-01T04:25:48;10.70;;;4.82;;
12593;SDS011;6362;50.208;9.182;2023-02-01T04:28:14;8.65;;;4.20;;
12593;SDS011;6362;50.208;9.182;2023-02-01T04:30:39;10.52;;;4.75;;
12593;SDS011;6362;50.208;9.182;2023-02-01T04:33:05;7.78;;;3.92;;
12593;SDS011;6362;50.208;9.182;2023-02-01T04:35:30;6.68;;;3.65;;
12593;SDS011;6362;50.208;9.182;2023-02-01T04:37:56;8.20;;;4.07;;
12593;SDS011;6362;50.208;9.182;2023-02-01T04:40:22;8.68;;;3.97;;
12593;SDS011;6362;50.208;9.182;2023-02-01T04:42:47;7.53;;;3.58;;
12593;SDS011;6362;50.208;9.182;2023-02-01T04:45:12;9.32;;;3.67;;
12593;SDS011;6362;50.208;9.182;2023-02-01T04:47:38;8.43;;;3.50;;
12593;SDS011;6362;50.208;9.182;2023-02-01T04:50:04;7.90;;;3.40;;
12593;SDS011;6362;50.208;9.182;2023-02-01T04:52:30;9.15;;;3.17;;
12593;SDS011;6362;50.208;9.182;2023-02-01T04:54:56;6.15;;;3.35;;
12593;SDS011;6362;50.208;9.182;2023-02-01T04:57:24;9.73;;;3.70;;
12593;SDS011;6362;50.208;9.182;2023-02-01T04:59:49;7.25;;;3.33;;
12593;SDS011;6362;50.208;9.182;2023-02-01T05:02:15;5.07;;;2.60;;
12593;SDS011;6362;50.208;9.182;2023-02-01T05:04:40;6.63;;;2.60;;
12593;SDS011;6362;50.208;9.182;2023-02-01T05:07:06;8.02;;;2.78;;
12593;SDS011;6362;50.208;9.182;2023-02-01T05:09:31;8.10;;;3.42;;
12593;SDS011;6362;50.208;9.182;2023-02-01T05:11:57;6.22;;;2.83;;
12593;SDS011;6362;50.208;9.182;2023-02-01T05:14:41;4.68;;;2.70;;
12593;SDS011;6362;50.208;9.182;2023-02-01T05:17:06;6.60;;;2.78;;
12593;SDS011;6362;50.208;9.182;2023-02-01T05:19:32;7.10;;;3.08;;
12593;SDS011;6362;50.208;9.182;2023-02-01T05:21:57;7.72;;;2.95;;
12593;SDS011;6362;50.208;9.182;2023-02-01T05:24:23;6.53;;;2.78;;
12593;SDS011;6362;50.208;9.182;2023-02-01T05:26:48;4.28;;;2.80;;
12593;SDS011;6362;50.208;9.182;2023-02-01T05:29:14;10.90;;;3.10;;
12593;SDS011;6362;50.208;9.182;2023-02-01T05:31:41;7.00;;;2.92;;
12593;SDS011;6362;50.208;9.182;2023-02-01T05:34:08;7.38;;;3.00;;
12593;SDS011;6362;50.208;9.182;2023-02-01T05:36:36;5.20;;;3.00;;
12593;SDS011;6362;50.208;9.182;2023-02-01T05:39:03;4.72;;;2.92;;
12593;SDS011;6362;50.208;9.182;2023-02-01T05:41:28;6.68;;;3.47;;
12593;SDS011;6362;50.208;9.182;2023-02-01T05:43:54;7.07;;;3.83;;
12593;SDS011;6362;50.208;9.182;2023-02-01T05:46:19;10.05;;;4.03;;
12593;SDS011;6362;50.208;9.182;2023-02-01T05:48:45;8.88;;;3.38;;
12593;SDS011;6362;50.208;9.182;2023-02-01T05:51:11;10.85;;;4.30;;
12593;SDS011;6362;50.208;9.182;2023-02-01T05:53:37;7.25;;;3.42;;
12593;SDS011;6362;50.208;9.182;2023-02-01T05:56:03;6.75;;;3.78;;
12593;SDS011;6362;50.208;9.182;2023-02-01T05:58:29;10.85;;;3.78;;
12593;SDS011;6362;50.208;9.182;2023-02-01T06:00:54;9.75;;;4.45;;
12593;SDS011;6362;50.208;9.182;2023-02-01T06:03:20;7.72;;;3.95;;
12593;SDS011;6362;50.208;9.182;2023-02-01T06:05:46;7.85;;;3.92;;
12593;SDS011;6362;50.208;9.182;2023-02-01T06:08:13;10.65;;;4.40;;
12593;SDS011;6362;50.208;9.182;2023-02-01T06:10:38;8.73;;;3.75;;
12593;SDS011;6362;50.208;9.182;2023-02-01T06:13:04;8.48;;;3.75;;
12593;SDS011;6362;50.208;9.182;2023-02-01T06:15:29;8.50;;;4.38;;
12593;SDS011;6362;50.208;9.182;2023-02-01T06:17:56;14.52;;;4.38;;
12593;SDS011;6362;50.208;9.182;2023-02-01T06:20:21;8.88;;;3.83;;
12593;SDS011;6362;50.208;9.182;2023-02-01T06:22:47;9.40;;;3.80;;
12593;SDS011;6362;50.208;9.182;2023-02-01T06:25:13;10.15;;;4.47;;
12593;SDS011;6362;50.208;9.182;2023-02-01T06:27:38;6.38;;;3.58;;
12593;SDS011;6362;50.208;9.182;2023-02-01T06:30:04;8.55;;;3.70;;
12593;SDS011;6362;50.208;9.182;2023-02-01T06:32:31;13.23;;;4.93;;
12593;SDS011;6362;50.208;9.182;2023-02-01T06:34:57;10.00;;;3.42;;
12593;SDS011;6362;50.208;9.182;2023-02-01T06:37:23;9.32;;;4.18;;
12593;SDS011;6362;50.208;9.182;2023-02-01T06:39:50;11.48;;;4.00;;
12593;SDS011;6362;50.208;9.182;2023-02-01T06:42:15;12.38;;;3.53;;
12593;SDS011;6362;50.208;9.182;2023-02-01T06:44:41;9.82;;;3.80;;
12593;SDS011;6362;50.208;9.182;2023-02-01T06:47:07;9.13;;;3.40;;
12593;SDS011;6362;50.208;9.182;2023-02-01T06:49:32;12.02;;;3.42;;
12593;SDS011;6362;50.208;9.182;2023-02-01T06:51:58;10.30;;;5.28;;
12593;SDS011;6362;50.208;9.182;2023-02-01T06:54:25;8.52;;;5.05;;
12593;SDS011;6362;50.208;9.182;2023-02-01T06:56:51;18.13;;;6.32;;
12593;SDS011;6362;50.208;9.182;2023-02-01T06:59:17;10.40;;;4.15;;
12593;SDS011;6362;50.208;9.182;2023-02-01T07:01:42;11.93;;;3.10;;
12593;SDS011;6362;50.208;9.182;2023-02-01T07:04:09;7.13;;;3.50;;
12593;SDS011;6362;50.208;9.182;2023-02-01T07:06:36;10.85;;;2.55;;
12593;SDS011;6362;50.208;9.182;2023-02-01T07:09:02;6.53;;;2.67;;
12593;SDS011;6362;50.208;9.182;2023-02-01T07:11:27;7.32;;;3.00;;
12593;SDS011;6362;50.208;9.182;2023-02-01T07:13:53;9.30;;;2.97;;
12593;SDS011;6362;50.208;9.182;2023-02-01T07:16:19;8.68;;;3.25;;
12593;SDS011;6362;50.208;9.182;2023-02-01T07:18:45;10.02;;;3.10;;
12593;SDS011;6362;50.208;9.182;2023-02-01T07:21:12;8.52;;;3.05;;
12593;SDS011;6362;50.208;9.182;2023-02-01T07:23:37;8.00;;;3.00;;
12593;SDS011;6362;50.208;9.182;2023-02-01T07:26:04;9.32;;;3.38;;
12593;SDS011;6362;50.208;9.182;2023-02-01T07:28:32;8.10;;;3.28;;
12593;SDS011;6362;50.208;9.182;2023-02-01T07:31:06;10.77;;;3.72;;
12593;SDS011;6362;50.208;9.182;2023-02-01T07:33:33;6.55;;;3.65;;
12593;SDS011;6362;50.208;9.182;2023-02-01T07:36:00;10.05;;;3.20;;
12593;SDS011;6362;50.208;9.182;2023-02-01T07:38:30;9.68;;;3.50;;
12593;SDS011;6362;50.208;9.182;2023-02-01T07:40:59;12.55;;;3.17;;
12593;SDS011;6362;50.208;9.182;2023-02-01T07:43:26;12.73;;;2.97;;
12593;SDS011;6362;50.208;9.182;2023-02-01T07:45:53;14.38;;;3.88;;
12593;SDS011;6362;50.208;9.182;2023-02-01T07:48:19;9.05;;;2.70;;
12593;SDS011;6362;50.208;9.182;2023-02-01T07:50:47;8.57;;;2.85;;
12593;SDS011;6362;50.208;9.182;2023-02-01T07:53:12;14.15;;;3.55;;
12593;SDS011;6362;50.208;9.182;2023-02-01T07:55:38;7.78;;;2.70;;
12593;SDS011;6362;50.208;9.182;2023-02-01T07:58:04;13.27;;;3.17;;
12593;SDS011;6362;50.208;9.182;2023-02-01T08:00:29;7.57;;;2.40;;
12593;SDS011;6362;50.208;9.182;2023-02-01T08:03:13;8.27;;;2.83;;
12593;SDS011;6362;50.208;9.182;2023-02-01T08:05:39;14.27;;;3.03;;
12593;SDS011;6362;50.208;9.182;2023-02-01T08:08:04;9.98;;;2.80;;
12593;SDS011;6362;50.208;9.182;2023-02-01T08:10:30;13.45;;;2.97;;
12593;SDS011;6362;50.208;9.182;2023-02-01T08:12:59;10.88;;;3.75;;
12593;SDS011;6362;50.208;9.182;2023-02-01T08:15:25;9.48;;;2.58;;
12593;SDS011;6362;50.208;9.182;2023-02-01T08:17:52;13.95;;;3.13;;
12593;SDS011;6362;50.208;9.182;2023-02-01T08:20:19;14.98;;;2.83;;
12593;SDS011;6362;50.208;9.182;2023-02-01T08:22:47;9.52;;;2.83;;
12593;SDS011;6362;50.208;9.182;2023-02-01T08:25:13;12.15;;;2.85;;
12593;SDS011;6362;50.208;9.182;2023-02-01T08:27:38;6.90;;;2.47;;
12593;SDS011;6362;50.208;9.182;2023-02-01T08:30:04;9.07;;;2.35;;
12593;SDS011;6362;50.208;9.182;2023-02-01T08:32:32;13.60;;;4.00;;
12593;SDS011;6362;50.208;9.182;2023-02-01T08:34:58;12.32;;;2.50;;
12593;SDS011;6362;50.208;9.182;2023-02-01T08:37:23;16.23;;;3.60;;
12593;SDS011;6362;50.208;9.182;2023-02-01T08:39:49;16.13;;;3.03;;
12593;SDS011;6362;50.208;9.182;2023-02-01T08:42:15;10.32;;;2.75;;
12593;SDS011;6362;50.208;9.182;2023-02-01T08:45:00;8.88;;;3.15;;
12593;SDS011;6362;50.208;9.182;2023-02-01T08:47:27;10.65;;;2.65;;
12593;SDS011;6362;50.208;9.182;2023-02-01T08:49:53;8.88;;;3.08;;
12593;SDS011;6362;50.208;9.182;2023-02-01T08:52:20;11.43;;;2.22;;
12593;SDS011;6362;50.208;9.182;2023-02-01T08:54:45;16.15;;;5.53;;
12593;SDS011;6362;50.208;9.182;2023-02-01T08:57:11;11.70;;;2.78;;
12593;SDS011;6362;50.208;9.182;2023-02-01T08:59:37;11.95;;;3.17;;
12593;SDS011;6362;50.208;9.182;2023-02-01T09:02:02;13.18;;;2.72;;
12593;SDS011;6362;50.208;9.182;2023-02-01T09:04:28;9.50;;;2.35;;
12593;SDS011;6362;50.208;9.182;2023-02-01T09:06:53;10.85;;;3.50;;
12593;SDS011;6362;50.208;9.182;2023-02-01T09:09:20;9.82;;;2.70;;
12593;SDS011;6362;50.208;9.182;2023-02-01T09:11:46;11.25;;;3.03;;
12593;SDS011;6362;50.208;9.182;2023-02-01T09:14:12;9.10;;;3.00;;
12593;SDS011;6362;50.208;9.182;2023-02-01T09:16:37;11.02;;;2.70;;
12593;SDS011;6362;50.208;9.182;2023-02-01T09:19:03;11.35;;;3.20;;
12593;SDS011;6362;50.208;9.182;2023-02-01T09:21:28;7.78;;;2.35;;
12593;SDS011;6362;50.208;9.182;2023-02-01T09:23:54;14.15;;;3.15;;
12593;SDS011;6362;50.208;9.182;2023-02-01T09:26:20;11.73;;;2.85;;
12593;SDS011;6362;50.208;9.182;2023-02-01T09:28:45;14.18;;;3.45;;
12593;SDS011;6362;50.208;9.182;2023-02-01T09:31:11;11.40;;;2.45;;
12593;SDS011;6362;50.208;9.182;2023-02-01T09:33:36;15.63;;;2.90;;
12593;SDS011;6362;50.208;9.182;2023-02-01T09:36:03;9.75;;;2.92;;
12593;SDS011;6362;50.208;9.182;2023-02-01T09:38:30;7.80;;;2.70;;
12593;SDS011;6362;50.208;9.182;2023-02-01T09:40:57;15.85;;;2.38;;
12593;SDS011;6362;50.208;9.182;2023-02-01T09:48:54;12.68;;;3.50;;
12593;SDS011;6362;50.208;9.182;2023-02-01T09:51:23;14.23;;;2.85;;
12593;SDS011;6362;50.208;9.182;2023-02-01T09:53:58;7.43;;;3.22;;
12593;SDS011;6362;50.208;9.182;2023-02-01T09:56:33;14.53;;;3.23;;
12593;SDS011;6362;50.208;9.182;2023-02-01T10:01:51;13.40;;;3.25;;
12593;SDS011;6362;50.208;9.182;2023-02-01T10:04:17;12.43;;;2.63;;
12593;SDS011;6362;50.208;9.182;2023-02-01T10:14:20;8.70;;;2.53;;
12593;SDS011;6362;50.208;9.182;2023-02-01T10:16:59;10.93;;;2.40;;
12593;SDS011;6362;50.208;9.182;2023-02-01T10:22:04;12.95;;;2.70;;
12593;SDS011;6362;50.208;9.182;2023-02-01T10:24:45;11.73;;;2.45;;
12593;SDS011;6362;50.208;9.182;2023-02-01T10:27:19;9.73;;;2.78;;
12593;SDS011;6362;50.208;9.182;2023-02-01T10:30:34;10.30;;;2.53;;
12593;SDS011;6362;50.208;9.182;2023-02-01T10:32:41;12.35;;;2.45;;
12593;SDS011;6362;50.208;9.182;2023-02-01T10:35:15;19.83;;;3.78;;
12593;SDS011;6362;50.208;9.182;2023-02-01T10:37:43;10.45;;;2.97;;
12593;SDS011;6362;50.208;9.182;2023-02-01T10:42:46;14.35;;;3.10;;
12593;SDS011;6362;50.208;9.182;2023-02-01T10:45:15;9.20;;;2.67;;
12593;SDS011;6362;50.208;9.182;2023-02-01T10:47:44;6.75;;;2.67;;
12593;SDS011;6362;50.208;9.182;2023-02-01T10:50:13;11.02;;;2.58;;
12593;SDS011;6362;50.208;9.182;2023-02-01T10:52:45;15.68;;;4.40;;
12593;SDS011;6362;50.208;9.182;2023-02-01T10:55:36;19.15;;;4.03;;
12593;SDS011;6362;50.208;9.182;2023-02-01T10:58:06;11.25;;;2.58;;
12593;SDS011;6362;50.208;9.182;2023-02-01T11:00:43;17.70;;;3.33;;
12593;SDS011;6362;50.208;9.182;2023-02-01T11:06:18;15.15;;;2.88;;
12593;SDS011;6362;50.208;9.182;2023-02-01T11:08:52;11.30;;;2.75;;
12593;SDS011;6362;50.208;9.182;2023-02-01T11:11:20;11.55;;;2.40;;
12593;SDS011;6362;50.208;9.182;2023-02-01T11:13:59;11.57;;;2.83;;
12593;SDS011;6362;50.208;9.182;2023-02-01T11:16:36;9.77;;;2.90;;
12593;SDS011;6362;50.208;9.182;2023-02-01T11:19:03;15.23;;;2.83;;
12593;SDS011;6362;50.208;9.182;2023-02-01T11:21:29;10.95;;;3.13;;
12593;SDS011;6362;50.208;9.182;2023-02-01T11:23:55;11.13;;;2.80;;
12593;SDS011;6362;50.208;9.182;2023-02-01T11:26:26;12.48;;;2.67;;
12593;SDS011;6362;50.208;9.182;2023-02-01T11:29:05;6.03;;;2.03;;
12593;SDS011;6362;50.208;9.182;2023-02-01T11:31:37;7.18;;;2.28;;
12593;SDS011;6362;50.208;9.182;2023-02-01T11:34:05;10.35;;;2.45;;
12593;SDS011;6362;50.208;9.182;2023-02-01T11:36:36;9.38;;;2.50;;
12593;SDS011;6362;50.208;9.182;2023-02-01T11:39:10;11.95;;;2.83;;
12593;SDS011;6362;50.208;9.182;2023-02-01T11:41:43;10.07;;;2.58;;
12593;SDS011;6362;50.208;9.182;2023-02-01T11:47:38;10.98;;;2.33;;
12593;SDS011;6362;50.208;9.182;2023-02-01T11:49:57;8.88;;;2.70;;
12593;SDS011;6362;50.208;9.182;2023-02-01T12:00:40;11.23;;;2.58;;
12593;SDS011;6362;50.208;9.182;2023-02-01T12:05:59;8.68;;;3.30;;
12593;SDS011;6362;50.208;9.182;2023-02-01T12:34:29;11.40;;;2.40;;
12593;SDS011;6362;50.208;9.182;2023-02-01T12:46:16;10.90;;;2.30;;
12593;SDS011;6362;50.208;9.182;2023-02-01T12:51:17;9.23;;;2.50;;
12593;SDS011;6362;50.208;9.182;2023-02-01T12:56:37;13.93;;;2.47;;
12593;SDS011;6362;50.208;9.182;2023-02-01T13:04:53;9.32;;;2.17;;
12593;SDS011;6362;50.208;9.182;2023-02-01T13:07:31;13.15;;;2.67;;
12593;SDS011;6362;50.208;9.182;2023-02-01T13:10:07;12.50;;;2.72;;
12593;SDS011;6362;50.208;9.182;2023-02-01T13:12:43;11.57;;;2.50;;
12593;SDS011;6362;50.208;9.182;2023-02-01T13:15:21;12.10;;;2.30;;
12593;SDS011;6362;50.208;9.182;2023-02-01T13:17:53;13.00;;;2.53;;
12593;SDS011;6362;50.208;9.182;2023-02-01T13:20:26;10.00;;;2.72;;
12593;SDS011;6362;50.208;9.182;2023-02-01T13:25:35;12.15;;;2.63;;
12593;SDS011;6362;50.208;9.182;2023-02-01T13:28:14;10.05;;;2.47;;
12593;SDS011;6362;50.208;9.182;2023-02-01T13:33:38;8.85;;;2.78;;
12593;SDS011;6362;50.208;9.182;2023-02-01T13:42:22;13.27;;;2.22;;
12593;SDS011;6362;50.208;9.182;2023-02-01T13:45:00;8.90;;;2.38;;
12593;SDS011;6362;50.208;9.182;2023-02-01T13:47:32;14.63;;;3.55;;
12593;SDS011;6362;50.208;9.182;2023-02-01T13:50:49;17.33;;;3.10;;
12593;SDS011;6362;50.208;9.182;2023-02-01T13:52:56;10.30;;;2.10;;
12593;SDS011;6362;50.208;9.182;2023-02-01T13:55:29;12.35;;;3.05;;
12593;SDS011;6362;50.208;9.182;2023-02-01T14:00:37;10.18;;;2.33;;
12593;SDS011;6362;50.208;9.182;2023-02-01T14:23:38;23.52;;;3.05;;
12593;SDS011;6362;50.208;9.182;2023-02-01T14:26:06;11.18;;;2.08;;
12593;SDS011;6362;50.208;9.182;2023-02-01T14:28:35;9.57;;;2.42;;
12593;SDS011;6362;50.208;9.182;2023-02-01T14:31:13;11.98;;;2.17;;
12593;SDS011;6362;50.208;9.182;2023-02-01T14:33:41;8.45;;;2.30;;
12593;SDS011;6362;50.208;9.182;2023-02-01T14:36:11;10.32;;;2.88;;
12593;SDS011;6362;50.208;9.182;2023-02-01T14:38:39;11.90;;;2.78;;
12593;SDS011;6362;50.208;9.182;2023-02-01T14:41:35;10.15;;;2.22;;
12593;SDS011;6362;50.208;9.182;2023-02-01T14:49:30;11.98;;;2.28;;
12593;SDS011;6362;50.208;9.182;2023-02-01T14:51:59;6.15;;;2.22;;
12593;SDS011;6362;50.208;9.182;2023-02-01T14:54:27;15.77;;;2.55;;
12593;SDS011;6362;50.208;9.182;2023-02-01T14:56:53;9.70;;;2.83;;
12593;SDS011;6362;50.208;9.182;2023-02-01T14:59:20;10.68;;;1.98;;
12593;SDS011;6362;50.208;9.182;2023-02-01T15:01:53;9.70;;;2.00;;
12593;SDS011;6362;50.208;9.182;2023-02-01T15:04:24;15.52;;;2.42;;
12593;SDS011;6362;50.208;9.182;2023-02-01T15:06:54;16.20;;;2.55;;
12593;SDS011;6362;50.208;9.182;2023-02-01T15:14:26;9.75;;;1.70;;
12593;SDS011;6362;50.208;9.182;2023-02-01T15:16:53;10.25;;;1.98;;
12593;SDS011;6362;50.208;9.182;2023-02-01T15:19:23;9.13;;;3.20;;
12593;SDS011;6362;50.208;9.182;2023-02-01T15:21:51;9.40;;;2.38;;
12593;SDS011;6362;50.208;9.182;2023-02-01T15:24:26;14.07;;;2.75;;
12593;SDS011;6362;50.208;9.182;2023-02-01T15:26:54;11.33;;;1.93;;
12593;SDS011;6362;50.208;9.182;2023-02-01T15:29:21;18.63;;;2.75;;
12593;SDS011;6362;50.208;9.182;2023-02-01T15:31:51;10.20;;;2.10;;
12593;SDS011;6362;50.208;9.182;2023-02-01T15:34:18;9.82;;;2.08;;
12593;SDS011;6362;50.208;9.182;2023-02-01T15:36:44;15.35;;;2.55;;
12593;SDS011;6362;50.208;9.182;2023-02-01T15:39:11;11.82;;;2.28;;
12593;SDS011;6362;50.208;9.182;2023-02-01T15:41:54;10.65;;;2.55;;
12593;SDS011;6362;50.208;9.182;2023-02-01T15:44:30;13.63;;;2.67;;
12593;SDS011;6362;50.208;9.182;2023-02-01T15:47:11;7.83;;;1.93;;
12593;SDS011;6362;50.208;9.182;2023-02-01T15:49:43;7.05;;;1.75;;
12593;SDS011;6362;50.208;9.182;2023-02-01T15:54:51;5.95;;;1.85;;
12593;SDS011;6362;50.208;9.182;2023-02-01T15:57:20;12.20;;;2.25;;
12593;SDS011;6362;50.208;9.182;2023-02-01T15:59:55;11.55;;;2.80;;
12593;SDS011;6362;50.208;9.182;2023-02-01T16:02:26;12.35;;;1.92;;
12593;SDS011;6362;50.208;9.182;2023-02-01T16:05:31;8.55;;;2.03;;
12593;SDS011;6362;50.208;9.182;2023-02-01T16:10:41;9.57;;;2.13;;
12593;SDS011;6362;50.208;9.182;2023-02-01T16:13:12;9.05;;;2.15;;
12593;SDS011;6362;50.208;9.182;2023-02-01T16:15:39;10.02;;;2.20;;
12593;SDS011;6362;50.208;9.182;2023-02-01T16:18:05;10.80;;;2.53;;
12593;SDS011;6362;50.208;9.182;2023-02-01T16:20:37;9.25;;;1.80;;
12593;SDS011;6362;50.208;9.182;2023-02-01T16:23:04;10.27;;;2.42;;
12593;SDS011;6362;50.208;9.182;2023-02-01T16:25:31;8.10;;;2.45;;
12593;SDS011;6362;50.208;9.182;2023-02-01T16:27:57;10.57;;;2.58;;
12593;SDS011;6362;50.208;9.182;2023-02-01T16:30:22;10.23;;;2.47;;
12593;SDS011;6362;50.208;9.182;2023-02-01T16:32:55;13.73;;;3.28;;
12593;SDS011;6362;50.208;9.182;2023-02-01T16:35:33;10.60;;;3.03;;
12593;SDS011;6362;50.208;9.182;2023-02-01T16:38:08;10.00;;;3.53;;
12593;SDS011;6362;50.208;9.182;2023-02-01T16:40:40;7.25;;;1.73;;
12593;SDS011;6362;50.208;9.182;2023-02-01T16:43:13;8.70;;;2.67;;
12593;SDS011;6362;50.208;9.182;2023-02-01T16:45:42;12.07;;;2.17;;
12593;SDS011;6362;50.208;9.182;2023-02-01T16:48:34;10.73;;;2.63;;
12593;SDS011;6362;50.208;9.182;2023-02-01T16:51:04;8.40;;;2.33;;
12593;SDS011;6362;50.208;9.182;2023-02-01T16:53:38;6.82;;;2.70;;
12593;SDS011;6362;50.208;9.182;2023-02-01T16:56:17;11.10;;;2.38;;
12593;SDS011;6362;50.208;9.182;2023-02-01T16:58:47;12.40;;;2.55;;
12593;SDS011;6362;50.208;9.182;2023-02-01T17:01:14;5.43;;;2.15;;
12593;SDS011;6362;50.208;9.182;2023-02-01T17:03:41;7.90;;;1.95;;
12593;SDS011;6362;50.208;9.182;2023-02-01T17:06:09;11.10;;;2.15;;
12593;SDS011;6362;50.208;9.182;2023-02-01T17:08:37;7.65;;;1.98;;
12593;SDS011;6362;50.208;9.182;2023-02-01T17:11:06;5.68;;;1.80;;
12593;SDS011;6362;50.208;9.182;2023-02-01T17:13:32;9.63;;;2.03;;
12593;SDS011;6362;50.208;9.182;2023-02-01T17:15:59;10.18;;;2.10;;
12593;SDS011;6362;50.208;9.182;2023-02-01T17:18:27;7.28;;;1.80;;
12593;SDS011;6362;50.208;9.182;2023-02-01T17:20:56;6.75;;;1.98;;
12593;SDS011;6362;50.208;9.182;2023-02-01T17:23:22;10.98;;;2.38;;
12593;SDS011;6362;50.208;9.182;2023-02-01T17:25:48;9.15;;;2.75;;
12593;SDS011;6362;50.208;9.182;2023-02-01T17:28:13;11.25;;;1.85;;
12593;SDS011;6362;50.208;9.182;2023-02-01T17:30:39;5.97;;;2.10;;
12593;SDS011;6362;50.208;9.182;2023-02-01T17:33:08;6.72;;;2.47;;
12593;SDS011;6362;50.208;9.182;2023-02-01T17:35:45;10.77;;;2.88;;
12593;SDS011;6362;50.208;9.182;2023-02-01T17:38:12;10.00;;;2.50;;
12593;SDS011;6362;50.208;9.182;2023-02-01T17:40:37;9.20;;;3.25;;
12593;SDS011;6362;50.208;9.182;2023-02-01T17:43:03;14.20;;;3.08;;
12593;SDS011;6362;50.208;9.182;2023-02-01T17:45:48;10.35;;;2.22;;
12593;SDS011;6362;50.208;9.182;2023-02-01T17:48:17;12.25;;;2.08;;
12593;SDS011;6362;50.208;9.182;2023-02-01T17:50:44;12.63;;;2.95;;
12593;SDS011;6362;50.208;9.182;2023-02-01T17:53:12;6.60;;;2.50;;
12593;SDS011;6362;50.208;9.182;2023-02-01T17:55:43;6.65;;;2.10;;
12593;SDS011;6362;50.208;9.182;2023-02-01T17:58:10;13.45;;;2.80;;
12593;SDS011;6362;50.208;9.182;2023-02-01T18:00:37;9.35;;;2.72;;
12593;SDS011;6362;50.208;9.182;2023-02-01T18:03:03;12.82;;;3.03;;
12593;SDS011;6362;50.208;9.182;2023-02-01T18:05:34;10.30;;;1.88;;
12593;SDS011;6362;50.208;9.182;2023-02-01T18:08:01;10.50;;;2.35;;
12593;SDS011;6362;50.208;9.182;2023-02-01T18:10:27;14.32;;;2.42;;